sensor_id;sensor_type;location;lat;lon;timestamp;pressure;altitude;pressure_sealevel;temperature;humidity
7018;BME280;3549;42.162;24.726;2023-02-16T00:01:56;47622.88;;;-141.97;69.35
7018;BME280;3549;42.162;24.726;2023-02-16T00:04:26;47690.16;;;-141.97;69.16
7018;BME280;3549;42.162;24.726;2023-02-16T00:06:52;47676.69;;;-141.97;69.80
7018;BME280;3549;42.162;24.726;2023-02-16T00:09:18;47622.88;;;-141.97;69.43
7018;BME280;3549;42.162;24.726;2023-02-16T00:11:45;47745.88;;;-141.97;69.23
7018;BME280;3549;42.162;24.726;2023-02-16T00:14:33;47697.84;;;-141.97;70.22
7018;BME280;3549;42.162;24.726;2023-02-16T00:16:59;47726.66;;;-141.97;70.33
7018;BME280;3549;42.162;24.726;2023-02-16T00:19:36;47626.72;;;-141.97;69.78
7018;BME280;3549;42.162;24.726;2023-02-16T00:22:03;47607.50;;;-141.97;70.13
7018;BME280;3549;42.162;24.726;2023-02-16T00:24:30;47734.34;;;-141.97;70.07
7018;BME280;3549;42.162;24.726;2023-02-16T00:26:56;47709.38;;;-141.97;70.73
7018;BME280;3549;42.162;24.726;2023-02-16T00:29:26;47678.63;;;-141.97;71.20
7018;BME280;3549;42.162;24.726;2023-02-16T00:31:52;47634.41;;;-141.97;72.04
7018;BME280;3549;42.162;24.726;2023-02-16T00:36:49;47594.03;;;-141.97;72.49
7018;BME280;3549;42.162;24.726;2023-02-16T00:39:14;47711.28;;;-141.97;71.72
7018;BME280;3549;42.162;24.726;2023-02-16T00:41:40;47649.78;;;-141.97;71.94
7018;BME280;3549;42.162;24.726;2023-02-16T00:44:17;47651.69;;;-141.97;72.26
7018;BME280;3549;42.162;24.726;2023-02-16T00:46:45;47553.69;;;-141.97;73.07
7018;BME280;3549;42.162;24.726;2023-02-16T00:49:16;47745.88;;;-141.97;73.56
7018;BME280;3549;42.162;24.726;2023-02-16T00:51:42;47661.31;;;-141.97;74.05
7018;BME280;3549;42.162;24.726;2023-02-16T00:54:08;47709.38;;;-141.97;74.58
7018;BME280;3549;42.162;24.726;2023-02-16T00:56:33;47595.97;;;-141.97;75.20
7018;BME280;3549;42.162;24.726;2023-02-16T00:58:59;47695.91;;;-141.97;74.51
7018;BME280;3549;42.162;24.726;2023-02-16T01:01:29;47674.78;;;-141.97;75.15
7018;BME280;3549;42.162;24.726;2023-02-16T01:03:58;47722.81;;;-141.97;75.71
7018;BME280;3549;42.162;24.726;2023-02-16T01:06:25;47672.84;;;-141.97;76.37
7018;BME280;3549;42.162;24.726;2023-02-16T01:09:15;47694.00;;;-141.97;77.24
7018;BME280;3549;42.162;24.726;2023-02-16T01:12:03;47665.16;;;-141.97;76.75
7018;BME280;3549;42.162;24.726;2023-02-16T01:14:31;47669.00;;;-141.97;76.69
7018;BME280;3549;42.162;24.726;2023-02-16T01:16:57;47688.22;;;-141.97;76.27
7018;BME280;3549;42.162;24.726;2023-02-16T01:19:22;47678.63;;;-141.97;75.75
7018;BME280;3549;42.162;24.726;2023-02-16T01:21:48;47638.25;;;-141.97;75.33
7018;BME280;3549;42.162;24.726;2023-02-16T01:24:13;47619.03;;;-141.97;74.69
7018;BME280;3549;42.162;24.726;2023-02-16T01:26:41;47694.00;;;-141.97;74.98
7018;BME280;3549;42.162;24.726;2023-02-16T01:29:26;47672.84;;;-141.97;75.24
7018;BME280;3549;42.162;24.726;2023-02-16T01:31:51;47678.63;;;-141.97;75.27
7018;BME280;3549;42.162;24.726;2023-02-16T01:34:17;47561.38;;;-141.97;75.27
7018;BME280;3549;42.162;24.726;2023-02-16T01:36:45;47695.91;;;-141.97;75.90
7018;BME280;3549;42.162;24.726;2023-02-16T01:39:13;47669.00;;;-141.97;76.02
7018;BME280;3549;42.162;24.726;2023-02-16T01:47:35;47661.31;;;-141.97;75.46
7018;BME280;3549;42.162;24.726;2023-02-16T01:50:19;47667.06;;;-141.97;75.63
7018;BME280;3549;42.162;24.726;2023-02-16T01:53:00;47653.63;;;-141.97;75.70
7018;BME280;3549;42.162;24.726;2023-02-16T01:55:33;47653.63;;;-141.97;75.62
7018;BME280;3549;42.162;24.726;2023-02-16T01:58:15;47722.81;;;-141.97;75.67
7018;BME280;3549;42.162;24.726;2023-02-16T02:03:17;47682.47;;;-141.97;74.89
7018;BME280;3549;42.162;24.726;2023-02-16T02:06:02;47680.53;;;-141.97;74.84
7018;BME280;3549;42.162;24.726;2023-02-16T02:09:03;47655.53;;;-141.97;74.54
7018;BME280;3549;42.162;24.726;2023-02-16T02:11:36;47655.53;;;-141.97;74.33
7018;BME280;3549;42.162;24.726;2023-02-16T02:14:07;47672.84;;;-141.97;75.55
7018;BME280;3549;42.162;24.726;2023-02-16T02:16:33;47680.53;;;-141.97;75.46
7018;BME280;3549;42.162;24.726;2023-02-16T02:18:59;47622.88;;;-141.97;75.32
7018;BME280;3549;42.162;24.726;2023-02-16T02:22:00;47670.91;;;-141.97;74.96
7018;BME280;3549;42.162;24.726;2023-02-16T02:25:22;47638.25;;;-141.97;75.22
7018;BME280;3549;42.162;24.726;2023-02-16T02:28:19;47720.91;;;-141.97;75.92
7018;BME280;3549;42.162;24.726;2023-02-16T02:30:52;47645.94;;;-141.97;76.50
7018;BME280;3549;42.162;24.726;2023-02-16T02:33:53;47672.84;;;-141.97;77.24
7018;BME280;3549;42.162;24.726;2023-02-16T02:36:37;47663.22;;;-141.97;78.02
7018;BME280;3549;42.162;24.726;2023-02-16T02:39:19;47638.25;;;-141.97;78.30
7018;BME280;3549;42.162;24.726;2023-02-16T02:42:16;47690.16;;;-141.97;77.65
7018;BME280;3549;42.162;24.726;2023-02-16T02:44:53;47649.78;;;-141.97;77.21
7018;BME280;3549;42.162;24.726;2023-02-16T02:47:20;47665.16;;;-141.97;76.71
7018;BME280;3549;42.162;24.726;2023-02-16T02:49:53;47680.53;;;-141.97;76.20
7018;BME280;3549;42.162;24.726;2023-02-16T02:52:20;47680.53;;;-141.97;76.00
7018;BME280;3549;42.162;24.726;2023-02-16T02:54:47;47636.31;;;-141.97;76.34
7018;BME280;3549;42.162;24.726;2023-02-16T02:57:40;47651.69;;;-141.97;76.09
7018;BME280;3549;42.162;24.726;2023-02-16T03:00:41;47672.84;;;-141.97;76.14
7018;BME280;3549;42.162;24.726;2023-02-16T03:03:19;47642.09;;;-141.97;76.04
7018;BME280;3549;42.162;24.726;2023-02-16T03:05:52;47690.16;;;-141.97;76.27
7018;BME280;3549;42.162;24.726;2023-02-16T03:08:23;47674.78;;;-141.97;76.24
7018;BME280;3549;42.162;24.726;2023-02-16T03:11:22;47661.31;;;-141.97;76.38
7018;BME280;3549;42.162;24.726;2023-02-16T03:14:12;47634.41;;;-141.97;76.92
7018;BME280;3549;42.162;24.726;2023-02-16T03:16:53;47669.00;;;-141.97;77.00
7018;BME280;3549;42.162;24.726;2023-02-16T03:19:40;47649.78;;;-141.97;77.38
7018;BME280;3549;42.162;24.726;2023-02-16T03:22:25;47676.69;;;-141.97;77.44
7018;BME280;3549;42.162;24.726;2023-02-16T03:25:09;47663.22;;;-141.97;76.66
7018;BME280;3549;42.162;24.726;2023-02-16T03:27:54;47657.47;;;-141.97;76.66
7018;BME280;3549;42.162;24.726;2023-02-16T03:30:41;47642.09;;;-141.97;76.60
7018;BME280;3549;42.162;24.726;2023-02-16T03:33:08;47726.66;;;-141.97;76.67
7018;BME280;3549;42.162;24.726;2023-02-16T03:35:34;47686.31;;;-141.97;76.11
7018;BME280;3549;42.162;24.726;2023-02-16T03:38:00;47680.53;;;-141.97;75.98
7018;BME280;3549;42.162;24.726;2023-02-16T03:40:27;47655.53;;;-141.97;75.70
7018;BME280;3549;42.162;24.726;2023-02-16T03:42:59;47669.00;;;-141.97;75.86
7018;BME280;3549;42.162;24.726;2023-02-16T03:45:26;47634.41;;;-141.97;75.99
7018;BME280;3549;42.162;24.726;2023-02-16T03:47:53;47640.16;;;-141.97;75.66
7018;BME280;3549;42.162;24.726;2023-02-16T03:50:18;47615.19;;;-141.97;75.90
7018;BME280;3549;42.162;24.726;2023-02-16T03:52:44;47669.00;;;-141.97;75.80
7018;BME280;3549;42.162;24.726;2023-02-16T03:55:09;47634.41;;;-141.97;75.60
7018;BME280;3549;42.162;24.726;2023-02-16T03:57:34;47695.91;;;-141.97;75.57
7018;BME280;3549;42.162;24.726;2023-02-16T04:00:00;47709.38;;;-141.97;75.99
7018;BME280;3549;42.162;24.726;2023-02-16T04:02:28;47655.53;;;-141.97;76.09
7018;BME280;3549;42.162;24.726;2023-02-16T04:04:54;47753.56;;;-141.97;76.21
7018;BME280;3549;42.162;24.726;2023-02-16T04:07:20;47680.53;;;-141.97;75.99
7018;BME280;3549;42.162;24.726;2023-02-16T04:09:45;47645.94;;;-141.97;76.51
7018;BME280;3549;42.162;24.726;2023-02-16T04:12:11;47669.00;;;-141.97;76.47
7018;BME280;3549;42.162;24.726;2023-02-16T04:14:55;47665.16;;;-141.97;76.48
7018;BME280;3549;42.162;24.726;2023-02-16T04:17:21;47642.09;;;-141.97;76.77
7018;BME280;3549;42.162;24.726;2023-02-16T04:19:46;47584.44;;;-141.97;76.28
7018;BME280;3549;42.162;24.726;2023-02-16T04:22:11;47626.72;;;-141.97;76.21
7018;BME280;3549;42.162;24.726;2023-02-16T04:24:37;47680.53;;;-141.97;76.27
7018;BME280;3549;42.162;24.726;2023-02-16T04:27:03;47649.78;;;-141.97;76.25
7018;BME280;3549;42.162;24.726;2023-02-16T04:29:28;47707.44;;;-141.97;76.08
7018;BME280;3549;42.162;24.726;2023-02-16T04:31:54;47697.84;;;-141.97;76.16
7018;BME280;3549;42.162;24.726;2023-02-16T04:34:20;47669.00;;;-141.97;76.41
7018;BME280;3549;42.162;24.726;2023-02-16T04:36:45;47701.69;;;-141.97;76.55
7018;BME280;3549;42.162;24.726;2023-02-16T04:39:10;47657.47;;;-141.97;76.78
7018;BME280;3549;42.162;24.726;2023-02-16T04:41:36;47672.84;;;-141.97;77.21
7018;BME280;3549;42.162;24.726;2023-02-16T04:44:01;47603.66;;;-141.97;76.83
7018;BME280;3549;42.162;24.726;2023-02-16T04:46:26;47690.16;;;-141.97;77.07
7018;BME280;3549;42.162;24.726;2023-02-16T04:48:52;47688.22;;;-141.97;77.05
7018;BME280;3549;42.162;24.726;2023-02-16T04:51:17;47615.19;;;-141.97;76.71
7018;BME280;3549;42.162;24.726;2023-02-16T04:53:43;47695.91;;;-141.97;76.82
7018;BME280;3549;42.162;24.726;2023-02-16T04:56:09;47684.38;;;-141.97;76.83
7018;BME280;3549;42.162;24.726;2023-02-16T04:58:35;47626.72;;;-141.97;76.55
7018;BME280;3549;42.162;24.726;2023-02-16T05:01:00;47703.59;;;-141.97;76.48
7018;BME280;3549;42.162;24.726;2023-02-16T05:03:26;47730.50;;;-141.97;76.20
7018;BME280;3549;42.162;24.726;2023-02-16T05:05:51;47695.91;;;-141.97;75.81
7018;BME280;3549;42.162;24.726;2023-02-16T05:08:16;47688.22;;;-141.97;75.74
7018;BME280;3549;42.162;24.726;2023-02-16T05:10:42;47653.63;;;-141.97;75.77
7018;BME280;3549;42.162;24.726;2023-02-16T05:13:09;47595.97;;;-141.97;75.33
7018;BME280;3549;42.162;24.726;2023-02-16T05:15:54;47674.78;;;-141.97;75.38
7018;BME280;3549;42.162;24.726;2023-02-16T05:18:19;47680.53;;;-141.97;75.05
7018;BME280;3549;42.162;24.726;2023-02-16T05:20:45;47638.25;;;-141.97;75.22
7018;BME280;3549;42.162;24.726;2023-02-16T05:23:29;47670.91;;;-141.97;76.11
7018;BME280;3549;42.162;24.726;2023-02-16T05:25:54;47703.59;;;-141.97;76.31
7018;BME280;3549;42.162;24.726;2023-02-16T05:28:19;47644.00;;;-141.97;76.20
7018;BME280;3549;42.162;24.726;2023-02-16T05:30:45;47659.38;;;-141.97;76.98
7018;BME280;3549;42.162;24.726;2023-02-16T05:33:10;47672.84;;;-141.97;77.10
7018;BME280;3549;42.162;24.726;2023-02-16T05:35:36;47653.63;;;-141.97;77.06
7018;BME280;3549;42.162;24.726;2023-02-16T05:38:01;47663.22;;;-141.97;77.35
7018;BME280;3549;42.162;24.726;2023-02-16T05:40:26;47676.69;;;-141.97;77.65
7018;BME280;3549;42.162;24.726;2023-02-16T05:42:53;47661.31;;;-141.97;77.92
7018;BME280;3549;42.162;24.726;2023-02-16T05:45:18;47663.22;;;-141.97;77.79
7018;BME280;3549;42.162;24.726;2023-02-16T05:47:43;47669.00;;;-141.97;77.61
7018;BME280;3549;42.162;24.726;2023-02-16T05:50:09;47653.63;;;-141.97;77.64
7018;BME280;3549;42.162;24.726;2023-02-16T05:52:35;47638.25;;;-141.97;77.61
7018;BME280;3549;42.162;24.726;2023-02-16T05:55:00;47649.78;;;-141.97;78.11
7018;BME280;3549;42.162;24.726;2023-02-16T05:57:26;47630.56;;;-141.97;77.59
7018;BME280;3549;42.162;24.726;2023-02-16T05:59:51;47657.47;;;-141.97;77.40
7018;BME280;3549;42.162;24.726;2023-02-16T06:02:17;47665.16;;;-141.97;77.29
7018;BME280;3549;42.162;24.726;2023-02-16T06:04:42;47574.81;;;-141.97;77.35
7018;BME280;3549;42.162;24.726;2023-02-16T06:07:07;47651.69;;;-141.97;76.82
7018;BME280;3549;42.162;24.726;2023-02-16T06:09:33;47684.38;;;-141.97;75.96
7018;BME280;3549;42.162;24.726;2023-02-16T06:11:58;47699.75;;;-141.97;76.78
7018;BME280;3549;42.162;24.726;2023-02-16T06:14:24;47653.63;;;-141.97;76.01
7018;BME280;3549;42.162;24.726;2023-02-16T06:16:49;47669.00;;;-141.97;76.02
7018;BME280;3549;42.162;24.726;2023-02-16T06:19:18;47670.91;;;-141.97;75.96
7018;BME280;3549;42.162;24.726;2023-02-16T06:21:45;47707.44;;;-141.97;75.54
7018;BME280;3549;42.162;24.726;2023-02-16T06:24:11;47703.59;;;-141.97;75.36
7018;BME280;3549;42.162;24.726;2023-02-16T06:26:37;47595.97;;;-141.97;75.01
7018;BME280;3549;42.162;24.726;2023-02-16T06:29:03;47628.63;;;-141.97;74.84
7018;BME280;3549;42.162;24.726;2023-02-16T06:31:29;47728.59;;;-141.97;74.30
7018;BME280;3549;42.162;24.726;2023-02-16T06:33:54;47694.00;;;-141.97;73.61
7018;BME280;3549;42.162;24.726;2023-02-16T06:36:21;47659.38;;;-141.97;73.19
7018;BME280;3549;42.162;24.726;2023-02-16T06:38:47;47640.16;;;-141.97;72.73
7018;BME280;3549;42.162;24.726;2023-02-16T06:41:12;47622.88;;;-141.97;72.09
7018;BME280;3549;42.162;24.726;2023-02-16T06:43:56;47645.94;;;-141.97;71.08
7018;BME280;3549;42.162;24.726;2023-02-16T06:46:21;47720.91;;;-141.97;70.76
7018;BME280;3549;42.162;24.726;2023-02-16T06:48:47;47603.66;;;-141.97;70.54
7018;BME280;3549;42.162;24.726;2023-02-16T06:51:16;47688.22;;;-141.97;70.21
7018;BME280;3549;42.162;24.726;2023-02-16T06:53:41;47707.44;;;-141.97;69.80
7018;BME280;3549;42.162;24.726;2023-02-16T06:56:06;47684.38;;;-141.97;69.58
7018;BME280;3549;42.162;24.726;2023-02-16T06:58:32;47636.31;;;-141.97;68.93
7018;BME280;3549;42.162;24.726;2023-02-16T07:00:57;47692.06;;;-141.97;69.08
7018;BME280;3549;42.162;24.726;2023-02-16T07:03:22;47680.53;;;-141.97;70.63
7018;BME280;3549;42.162;24.726;2023-02-16T07:05:50;47711.28;;;-141.97;70.27
7018;BME280;3549;42.162;24.726;2023-02-16T07:08:15;47665.16;;;-141.97;68.74
7018;BME280;3549;42.162;24.726;2023-02-16T07:10:44;47730.50;;;-141.97;66.77
7018;BME280;3549;42.162;24.726;2023-02-16T07:13:10;47718.97;;;-141.97;66.16
7018;BME280;3549;42.162;24.726;2023-02-16T07:15:36;47768.94;;;-141.97;65.33
7018;BME280;3549;42.162;24.726;2023-02-16T07:18:01;47657.47;;;-141.97;64.61
7018;BME280;3549;42.162;24.726;2023-02-16T07:20:27;47599.81;;;-141.97;63.19
7018;BME280;3549;42.162;24.726;2023-02-16T07:22:52;47649.78;;;-141.97;63.71
7018;BME280;3549;42.162;24.726;2023-02-16T07:25:18;47701.69;;;-141.97;62.84
7018;BME280;3549;42.162;24.726;2023-02-16T07:27:43;47599.81;;;-141.97;62.50
7018;BME280;3549;42.162;24.726;2023-02-16T07:30:09;47651.69;;;-141.97;62.08
7018;BME280;3549;42.162;24.726;2023-02-16T07:32:36;47669.00;;;-141.97;60.53
7018;BME280;3549;42.162;24.726;2023-02-16T07:35:01;47630.56;;;-141.97;59.40
7018;BME280;3549;42.162;24.726;2023-02-16T07:37:27;47676.69;;;-141.97;58.99
7018;BME280;3549;42.162;24.726;2023-02-16T07:39:52;47636.31;;;-141.97;58.11
7018;BME280;3549;42.162;24.726;2023-02-16T07:42:19;47686.31;;;-141.97;57.16
7018;BME280;3549;42.162;24.726;2023-02-16T07:44:44;47745.88;;;-141.97;55.91
7018;BME280;3549;42.162;24.726;2023-02-16T07:47:10;47632.47;;;-141.97;55.34
7018;BME280;3549;42.162;24.726;2023-02-16T07:49:37;47617.09;;;-141.97;54.57
7018;BME280;3549;42.162;24.726;2023-02-16T07:52:03;47672.84;;;-141.97;53.82
7018;BME280;3549;42.162;24.726;2023-02-16T07:54:30;47632.47;;;-141.97;53.70
7018;BME280;3549;42.162;24.726;2023-02-16T07:56:55;47626.72;;;-141.97;53.52
7018;BME280;3549;42.162;24.726;2023-02-16T07:59:20;47692.06;;;-141.97;52.60
7018;BME280;3549;42.162;24.726;2023-02-16T08:01:46;47667.06;;;-141.97;52.12
7018;BME280;3549;42.162;24.726;2023-02-16T08:04:11;47676.69;;;-141.97;53.09
7018;BME280;3549;42.162;24.726;2023-02-16T08:06:37;47613.25;;;-141.97;52.66
7018;BME280;3549;42.162;24.726;2023-02-16T08:09:02;47672.84;;;-141.97;51.53
7018;BME280;3549;42.162;24.726;2023-02-16T08:11:28;47649.78;;;-141.97;51.45
7018;BME280;3549;42.162;24.726;2023-02-16T08:13:54;47684.38;;;-141.97;50.90
7018;BME280;3549;42.162;24.726;2023-02-16T08:16:24;47745.88;;;-141.97;49.68
7018;BME280;3549;42.162;24.726;2023-02-16T08:18:51;47665.16;;;-141.97;50.55
7018;BME280;3549;42.162;24.726;2023-02-16T08:21:18;47619.03;;;-141.97;52.42
7018;BME280;3549;42.162;24.726;2023-02-16T08:23:47;47672.84;;;-141.97;52.72
7018;BME280;3549;42.162;24.726;2023-02-16T08:26:17;47692.06;;;-141.97;51.04
7018;BME280;3549;42.162;24.726;2023-02-16T08:28:44;47651.69;;;-141.97;50.04
7018;BME280;3549;42.162;24.726;2023-02-16T08:31:15;47703.59;;;-141.97;48.41
7018;BME280;3549;42.162;24.726;2023-02-16T08:33:41;47615.19;;;-141.97;46.43
7018;BME280;3549;42.162;24.726;2023-02-16T08:36:29;47638.25;;;-141.97;47.17
7018;BME280;3549;42.162;24.726;2023-02-16T08:38:57;47630.56;;;-141.97;46.95
7018;BME280;3549;42.162;24.726;2023-02-16T08:41:27;47730.50;;;-141.97;46.69
7018;BME280;3549;42.162;24.726;2023-02-16T08:43:54;47726.66;;;-141.97;46.01
7018;BME280;3549;42.162;24.726;2023-02-16T08:46:20;47628.63;;;-141.97;45.35
7018;BME280;3549;42.162;24.726;2023-02-16T08:48:47;47665.16;;;-141.97;45.21
7018;BME280;3549;42.162;24.726;2023-02-16T08:51:18;47642.09;;;-141.97;44.41
7018;BME280;3549;42.162;24.726;2023-02-16T08:53:45;47644.00;;;-141.97;43.72
7018;BME280;3549;42.162;24.726;2023-02-16T08:56:11;47684.38;;;-141.97;42.78
7018;BME280;3549;42.162;24.726;2023-02-16T08:58:37;47751.66;;;-141.97;43.09
7018;BME280;3549;42.162;24.726;2023-02-16T09:01:04;47663.22;;;-141.97;43.47
7018;BME280;3549;42.162;24.726;2023-02-16T09:03:30;47663.22;;;-141.97;43.38
7018;BME280;3549;42.162;24.726;2023-02-16T09:06:00;47617.09;;;-141.97;43.13
7018;BME280;3549;42.162;24.726;2023-02-16T09:08:26;47626.72;;;-141.97;42.60
7018;BME280;3549;42.162;24.726;2023-02-16T09:10:52;47665.16;;;-141.97;41.05
7018;BME280;3549;42.162;24.726;2023-02-16T09:13:18;47792.03;;;-141.97;40.93
7018;BME280;3549;42.162;24.726;2023-02-16T09:15:44;47697.84;;;-141.97;40.79
7018;BME280;3549;42.162;24.726;2023-02-16T09:18:10;47715.13;;;-141.97;41.05
7018;BME280;3549;42.162;24.726;2023-02-16T09:20:40;47586.34;;;-141.97;41.77
7018;BME280;3549;42.162;24.726;2023-02-16T09:23:08;47638.25;;;-141.97;40.95
7018;BME280;3549;42.162;24.726;2023-02-16T09:25:36;47645.94;;;-141.97;39.83
7018;BME280;3549;42.162;24.726;2023-02-16T09:28:03;47657.47;;;-141.97;39.41
7018;BME280;3549;42.162;24.726;2023-02-16T09:30:29;47590.19;;;-141.97;39.16
7018;BME280;3549;42.162;24.726;2023-02-16T09:32:54;47576.75;;;-141.97;39.39
7018;BME280;3549;42.162;24.726;2023-02-16T09:35:20;47663.22;;;-141.97;39.13
7018;BME280;3549;42.162;24.726;2023-02-16T09:37:46;47665.16;;;-141.97;38.62
7018;BME280;3549;42.162;24.726;2023-02-16T09:40:12;47680.53;;;-141.97;38.82
7018;BME280;3549;42.162;24.726;2023-02-16T09:45:26;47684.38;;;-141.97;38.02
7018;BME280;3549;42.162;24.726;2023-02-16T09:47:54;47569.06;;;-141.97;37.82
7018;BME280;3549;42.162;24.726;2023-02-16T09:50:24;47634.41;;;-141.97;37.58
7018;BME280;3549;42.162;24.726;2023-02-16T09:52:58;47670.91;;;-141.97;37.60
7018;BME280;3549;42.162;24.726;2023-02-16T09:55:40;47738.19;;;-141.97;37.41
7018;BME280;3549;42.162;24.726;2023-02-16T09:58:20;47707.44;;;-141.97;37.41
7018;BME280;3549;42.162;24.726;2023-02-16T10:00:56;47647.84;;;-141.97;37.03
7018;BME280;3549;42.162;24.726;2023-02-16T10:04:10;47661.31;;;-141.97;36.61
7018;BME280;3549;42.162;24.726;2023-02-16T10:07:01;47634.41;;;-141.97;36.48
7018;BME280;3549;42.162;24.726;2023-02-16T10:09:31;47653.63;;;-141.97;36.60
7018;BME280;3549;42.162;24.726;2023-02-16T10:12:07;47599.81;;;-141.97;36.93
7018;BME280;3549;42.162;24.726;2023-02-16T10:14:57;47609.41;;;-141.97;36.33
7018;BME280;3549;42.162;24.726;2023-02-16T10:20:30;47563.28;;;-141.97;35.63
7018;BME280;3549;42.162;24.726;2023-02-16T10:25:56;47590.19;;;-141.97;35.27
7018;BME280;3549;42.162;24.726;2023-02-16T10:28:41;47661.31;;;-141.97;36.02
7018;BME280;3549;42.162;24.726;2023-02-16T10:34:16;47651.69;;;-141.97;34.47
7018;BME280;3549;42.162;24.726;2023-02-16T10:37:06;47620.94;;;-141.97;34.39
7018;BME280;3549;42.162;24.726;2023-02-16T10:43:10;47634.41;;;-141.97;33.70
7018;BME280;3549;42.162;24.726;2023-02-16T10:45:53;47663.22;;;-141.97;33.46
7018;BME280;3549;42.162;24.726;2023-02-16T10:48:22;47624.78;;;-141.97;33.65
7018;BME280;3549;42.162;24.726;2023-02-16T10:51:08;47599.81;;;-141.97;33.58
7018;BME280;3549;42.162;24.726;2023-02-16T11:01:54;47665.16;;;-141.97;33.30
7018;BME280;3549;42.162;24.726;2023-02-16T11:04:42;47757.41;;;-141.97;33.01
7018;BME280;3549;42.162;24.726;2023-02-16T11:07:15;47597.88;;;-141.97;33.22
7018;BME280;3549;42.162;24.726;2023-02-16T11:10:00;47655.53;;;-141.97;34.05
7018;BME280;3549;42.162;24.726;2023-02-16T11:12:42;47655.53;;;-141.97;33.79
7018;BME280;3549;42.162;24.726;2023-02-16T11:15:35;47642.09;;;-141.97;33.84
7018;BME280;3549;42.162;24.726;2023-02-16T11:18:28;47576.75;;;-141.97;33.50
7018;BME280;3549;42.162;24.726;2023-02-16T11:20:54;47647.84;;;-141.97;33.30
7018;BME280;3549;42.162;24.726;2023-02-16T11:23:23;47624.78;;;-141.97;33.14
7018;BME280;3549;42.162;24.726;2023-02-16T11:28:44;47634.41;;;-141.97;33.28
7018;BME280;3549;42.162;24.726;2023-02-16T11:31:30;47655.53;;;-141.97;33.75
7018;BME280;3549;42.162;24.726;2023-02-16T11:39:07;47649.78;;;-141.97;33.47
7018;BME280;3549;42.162;24.726;2023-02-16T11:41:48;47713.22;;;-141.97;33.53
7018;BME280;3549;42.162;24.726;2023-02-16T11:44:33;47615.19;;;-141.97;33.46
7018;BME280;3549;42.162;24.726;2023-02-16T11:47:03;47726.66;;;-141.97;33.22
7018;BME280;3549;42.162;24.726;2023-02-16T11:49:37;47647.84;;;-141.97;33.35
7018;BME280;3549;42.162;24.726;2023-02-16T11:54:51;47586.34;;;-141.97;33.15
7018;BME280;3549;42.162;24.726;2023-02-16T11:57:26;47661.31;;;-141.97;33.20
7018;BME280;3549;42.162;24.726;2023-02-16T11:59:53;47615.19;;;-141.97;33.12
7018;BME280;3549;42.162;24.726;2023-02-16T12:10:41;47734.34;;;-141.97;33.55
7018;BME280;3549;42.162;24.726;2023-02-16T12:13:23;47644.00;;;-141.97;33.33
7018;BME280;3549;42.162;24.726;2023-02-16T12:24:34;47630.56;;;-141.97;33.33
7018;BME280;3549;42.162;24.726;2023-02-16T12:27:07;47624.78;;;-141.97;32.95
7018;BME280;3549;42.162;24.726;2023-02-16T12:32:51;47613.25;;;-141.97;32.45
7018;BME280;3549;42.162;24.726;2023-02-16T12:43:52;47624.78;;;-141.97;31.82
7018;BME280;3549;42.162;24.726;2023-02-16T12:46:38;47636.31;;;-141.97;31.30
7018;BME280;3549;42.162;24.726;2023-02-16T12:49:27;47586.34;;;-141.97;31.12
7018;BME280;3549;42.162;24.726;2023-02-16T12:52:03;47649.78;;;-141.97;30.72
7018;BME280;3549;42.162;24.726;2023-02-16T12:57:07;47726.66;;;-141.97;31.38
7018;BME280;3549;42.162;24.726;2023-02-16T12:59:43;47642.09;;;-141.97;31.45
7018;BME280;3549;42.162;24.726;2023-02-16T13:02:21;47684.38;;;-141.97;31.32
7018;BME280;3549;42.162;24.726;2023-02-16T13:05:09;47594.03;;;-141.97;30.90
7018;BME280;3549;42.162;24.726;2023-02-16T13:07:38;47599.81;;;-141.97;31.09
7018;BME280;3549;42.162;24.726;2023-02-16T13:10:19;47626.72;;;-141.97;30.49
7018;BME280;3549;42.162;24.726;2023-02-16T13:12:54;47611.34;;;-141.97;30.11
7018;BME280;3549;42.162;24.726;2023-02-16T13:15:38;47582.50;;;-141.97;30.10
7018;BME280;3549;42.162;24.726;2023-02-16T13:21:01;47749.72;;;-141.97;30.13
7018;BME280;3549;42.162;24.726;2023-02-16T13:29:40;47655.53;;;-141.97;29.51
7018;BME280;3549;42.162;24.726;2023-02-16T13:43:38;47592.13;;;-141.97;29.44
7018;BME280;3549;42.162;24.726;2023-02-16T13:46:11;47599.81;;;-141.97;29.21
7018;BME280;3549;42.162;24.726;2023-02-16T13:48:48;47601.72;;;-141.97;29.13
7018;BME280;3549;42.162;24.726;2023-02-16T13:51:24;47576.75;;;-141.97;29.34
7018;BME280;3549;42.162;24.726;2023-02-16T13:53:55;47599.81;;;-141.97;29.17
7018;BME280;3549;42.162;24.726;2023-02-16T13:58:54;47644.00;;;-141.97;28.99
7018;BME280;3549;42.162;24.726;2023-02-16T14:03:57;47580.59;;;-141.97;28.25
7018;BME280;3549;42.162;24.726;2023-02-16T14:19:55;47540.22;;;-141.97;27.14
7018;BME280;3549;42.162;24.726;2023-02-16T14:22:50;47563.28;;;-141.97;27.73
7018;BME280;3549;42.162;24.726;2023-02-16T14:27:54;47638.25;;;-141.97;27.73
7018;BME280;3549;42.162;24.726;2023-02-16T14:30:41;47619.03;;;-141.97;27.42
7018;BME280;3549;42.162;24.726;2023-02-16T14:35:38;47574.81;;;-141.97;27.85
7018;BME280;3549;42.162;24.726;2023-02-16T14:38:25;47613.25;;;-141.97;27.30
7018;BME280;3549;42.162;24.726;2023-02-16T14:40:57;47580.59;;;-141.97;27.38
7018;BME280;3549;42.162;24.726;2023-02-16T14:43:44;47557.53;;;-141.97;27.62
7018;BME280;3549;42.162;24.726;2023-02-16T15:01:04;47563.28;;;-141.97;32.49
7018;BME280;3549;42.162;24.726;2023-02-16T15:03:47;47755.50;;;-141.97;33.07
7018;BME280;3549;42.162;24.726;2023-02-16T15:06:36;47634.41;;;-141.97;33.50
7018;BME280;3549;42.162;24.726;2023-02-16T15:09:14;47619.03;;;-141.97;33.85
7018;BME280;3549;42.162;24.726;2023-02-16T15:11:48;47620.94;;;-141.97;34.21
7018;BME280;3549;42.162;24.726;2023-02-16T15:17:25;47644.00;;;-141.97;34.82
7018;BME280;3549;42.162;24.726;2023-02-16T15:19:53;47634.41;;;-141.97;34.94
7018;BME280;3549;42.162;24.726;2023-02-16T15:22:24;47622.88;;;-141.97;35.01
7018;BME280;3549;42.162;24.726;2023-02-16T15:27:23;47592.13;;;-141.97;35.52
7018;BME280;3549;42.162;24.726;2023-02-16T15:30:21;47586.34;;;-141.97;35.63
7018;BME280;3549;42.162;24.726;2023-02-16T15:32:53;47617.09;;;-141.97;35.85
7018;BME280;3549;42.162;24.726;2023-02-16T15:35:25;47667.06;;;-141.97;35.95